<?xml version="1.0" encoding="UTF-8" standalone="no" ?>
<gpx xmlns="http://www.topografix.com/GPX/1/1" xmlns:xsi="http://www.w3.org/2001/XMLSchema-instance" xsi:schemaLocation="http://www.topografix.com/GPX/1/1 http://www.topografix.com/GPX/1/1/gpx.xsd" version="1.1" creator="VisuGPX - https://www.visugpx.com">
  <metadata>
    <name>25km la clusaz</name>
  </metadata>
  <trk>
    <name><![CDATA[25km la clusaz]]></name>
    <trkseg>
      <trkpt lat="45.90295" lon="6.42597">
        <ele>1091.9283447266</ele>
        <time>2020-06-16T15:01:36.000Z</time>
      </trkpt>
      <trkpt lat="45.9029" lon="6.42608">
        <ele>1095.5969238281</ele>
        <time>2020-06-16T15:01:36.003Z</time>
      </trkpt>
      <trkpt lat="45.90315" lon="6.42647">
        <ele>1097.8109130859</ele>
        <time>2020-06-16T15:01:36.019Z</time>
      </trkpt>
      <trkpt lat="45.90311" lon="6.42652">
        <ele>1100.2602539062</ele>
        <time>2020-06-16T15:01:36.036Z</time>
      </trkpt>
      <trkpt lat="45.9029" lon="6.42641">
        <ele>1102.4907226562</ele>
        <time>2020-06-16T15:01:36.061Z</time>
      </trkpt>
      <trkpt lat="45.90289" lon="6.42655">
        <ele>1104.8334960938</ele>
        <time>2020-06-16T15:01:36.089Z</time>
      </trkpt>
      <trkpt lat="45.90329" lon="6.427">
        <ele>1102.7996826172</ele>
        <time>2020-06-16T15:01:36.134Z</time>
      </trkpt>
      <trkpt lat="45.90356" lon="6.42746">
        <ele>1102.59375</ele>
        <time>2020-06-16T15:01:36.193Z</time>
      </trkpt>
      <trkpt lat="45.90358" lon="6.42762">
        <ele>1104.51171875</ele>
        <time>2020-06-16T15:01:36.256Z</time>
      </trkpt>
      <trkpt lat="45.90358" lon="6.42762">
        <ele>1104.5093994141</ele>
        <time>2020-06-16T15:01:36.319Z</time>
      </trkpt>
      <trkpt lat="45.90388" lon="6.42906">
        <ele>1111.892578125</ele>
        <time>2020-06-16T15:01:36.417Z</time>
      </trkpt>
      <trkpt lat="45.9039" lon="6.43035">
        <ele>1115.5355224609</ele>
        <time>2020-06-16T15:01:36.545Z</time>
      </trkpt>
      <trkpt lat="45.90355" lon="6.433">
        <ele>1132.9912109375</ele>
        <time>2020-06-16T15:01:36.736Z</time>
      </trkpt>
      <trkpt lat="45.90355" lon="6.43319">
        <ele>1132.7042236328</ele>
        <time>2020-06-16T15:01:36.931Z</time>
      </trkpt>
      <trkpt lat="45.90355" lon="6.43319">
        <ele>1132.6993408203</ele>
        <time>2020-06-16T15:01:37.126Z</time>
      </trkpt>
      <trkpt lat="45.90357" lon="6.43463">
        <ele>1139.5645751953</ele>
        <time>2020-06-16T15:01:37.355Z</time>
      </trkpt>
      <trkpt lat="45.90365" lon="6.43517">
        <ele>1136.5675048828</ele>
        <time>2020-06-16T15:01:37.597Z</time>
      </trkpt>
      <trkpt lat="45.90335" lon="6.43703">
        <ele>1154.5698242188</ele>
        <time>2020-06-16T15:01:37.883Z</time>
      </trkpt>
      <trkpt lat="45.90317" lon="6.43743">
        <ele>1164.2370605469</ele>
        <time>2020-06-16T15:01:38.180Z</time>
      </trkpt>
      <trkpt lat="45.90324" lon="6.43768">
        <ele>1162.9112548828</ele>
        <time>2020-06-16T15:01:38.483Z</time>
      </trkpt>
      <trkpt lat="45.90306" lon="6.43891">
        <ele>1178.4022216797</ele>
        <time>2020-06-16T15:01:38.816Z</time>
      </trkpt>
      <trkpt lat="45.90343" lon="6.44246">
        <ele>1187.3228759766</ele>
        <time>2020-06-16T15:01:39.232Z</time>
      </trkpt>
      <trkpt lat="45.90353" lon="6.44359">
        <ele>1198.1229248047</ele>
        <time>2020-06-16T15:01:39.675Z</time>
      </trkpt>
      <trkpt lat="45.90385" lon="6.4452">
        <ele>1206.1977539062</ele>
        <time>2020-06-16T15:01:40.157Z</time>
      </trkpt>
      <trkpt lat="45.90389" lon="6.44573">
        <ele>1210.1021728516</ele>
        <time>2020-06-16T15:01:40.651Z</time>
      </trkpt>
      <trkpt lat="45.90394" lon="6.4467">
        <ele>1217.2077636719</ele>
        <time>2020-06-16T15:01:41.168Z</time>
      </trkpt>
      <trkpt lat="45.90405" lon="6.44715">
        <ele>1215.5900878906</ele>
        <time>2020-06-16T15:01:41.696Z</time>
      </trkpt>
      <trkpt lat="45.90433" lon="6.45042">
        <ele>1242.0267333984</ele>
        <time>2020-06-16T15:01:42.301Z</time>
      </trkpt>
      <trkpt lat="45.90442" lon="6.45135">
        <ele>1251.2679443359</ele>
        <time>2020-06-16T15:01:42.927Z</time>
      </trkpt>
      <trkpt lat="45.90453" lon="6.45179">
        <ele>1252.0441894531</ele>
        <time>2020-06-16T15:01:43.564Z</time>
      </trkpt>
      <trkpt lat="45.90495" lon="6.45517">
        <ele>1273.841796875</ele>
        <time>2020-06-16T15:01:44.281Z</time>
      </trkpt>
      <trkpt lat="45.90497" lon="6.45642">
        <ele>1288.2861328125</ele>
        <time>2020-06-16T15:01:45.027Z</time>
      </trkpt>
      <trkpt lat="45.90512" lon="6.45772">
        <ele>1289.4675292969</ele>
        <time>2020-06-16T15:01:45.804Z</time>
      </trkpt>
      <trkpt lat="45.90503" lon="6.45835">
        <ele>1295.3424072266</ele>
        <time>2020-06-16T15:01:46.596Z</time>
      </trkpt>
      <trkpt lat="45.90475" lon="6.45936">
        <ele>1311.1967773438</ele>
        <time>2020-06-16T15:01:47.413Z</time>
      </trkpt>
      <trkpt lat="45.90499" lon="6.46043">
        <ele>1294.5356445312</ele>
        <time>2020-06-16T15:01:48.256Z</time>
      </trkpt>
      <trkpt lat="45.90493" lon="6.46058">
        <ele>1295.3465576172</ele>
        <time>2020-06-16T15:01:49.103Z</time>
      </trkpt>
      <trkpt lat="45.9047" lon="6.46074">
        <ele>1302.9010009766</ele>
        <time>2020-06-16T15:01:49.959Z</time>
      </trkpt>
      <trkpt lat="45.9047" lon="6.46074">
        <ele>1302.90234375</ele>
        <time>2020-06-16T15:01:50.815Z</time>
      </trkpt>
      <trkpt lat="45.9046" lon="6.46081">
        <ele>1304.8470458984</ele>
        <time>2020-06-16T15:01:51.675Z</time>
      </trkpt>
      <trkpt lat="45.90446" lon="6.46104">
        <ele>1305.6322021484</ele>
        <time>2020-06-16T15:01:52.542Z</time>
      </trkpt>
      <trkpt lat="45.9044" lon="6.46147">
        <ele>1301.7640380859</ele>
        <time>2020-06-16T15:01:53.419Z</time>
      </trkpt>
      <trkpt lat="45.90441" lon="6.4621">
        <ele>1309.5659179688</ele>
        <time>2020-06-16T15:01:54.310Z</time>
      </trkpt>
      <trkpt lat="45.90458" lon="6.46302">
        <ele>1330.7766113281</ele>
        <time>2020-06-16T15:01:55.224Z</time>
      </trkpt>
      <trkpt lat="45.90477" lon="6.46334">
        <ele>1336.5015869141</ele>
        <time>2020-06-16T15:01:56.148Z</time>
      </trkpt>
      <trkpt lat="45.90477" lon="6.46334">
        <ele>1336.5042724609</ele>
        <time>2020-06-16T15:01:57.072Z</time>
      </trkpt>
      <trkpt lat="45.90506" lon="6.46369">
        <ele>1342.4127197266</ele>
        <time>2020-06-16T15:01:58.008Z</time>
      </trkpt>
      <trkpt lat="45.90611" lon="6.46453">
        <ele>1340.6082763672</ele>
        <time>2020-06-16T15:01:58.984Z</time>
      </trkpt>
      <trkpt lat="45.90662" lon="6.46521">
        <ele>1339.5106201172</ele>
        <time>2020-06-16T15:01:59.983Z</time>
      </trkpt>
      <trkpt lat="45.90681" lon="6.46623">
        <ele>1348.9943847656</ele>
        <time>2020-06-16T15:02:01.007Z</time>
      </trkpt>
      <trkpt lat="45.90702" lon="6.46739">
        <ele>1365.8604736328</ele>
        <time>2020-06-16T15:02:02.059Z</time>
      </trkpt>
      <trkpt lat="45.90714" lon="6.46777">
        <ele>1369.7221679688</ele>
        <time>2020-06-16T15:02:03.121Z</time>
      </trkpt>
      <trkpt lat="45.90723" lon="6.46792">
        <ele>1369.9796142578</ele>
        <time>2020-06-16T15:02:04.187Z</time>
      </trkpt>
      <trkpt lat="45.90731" lon="6.46844">
        <ele>1379.833984375</ele>
        <time>2020-06-16T15:02:05.266Z</time>
      </trkpt>
      <trkpt lat="45.90749" lon="6.46884">
        <ele>1385.4077148438</ele>
        <time>2020-06-16T15:02:06.356Z</time>
      </trkpt>
      <trkpt lat="45.90755" lon="6.46925">
        <ele>1387.2198486328</ele>
        <time>2020-06-16T15:02:07.456Z</time>
      </trkpt>
      <trkpt lat="45.90779" lon="6.46963">
        <ele>1382.6206054688</ele>
        <time>2020-06-16T15:02:08.567Z</time>
      </trkpt>
      <trkpt lat="45.90777" lon="6.46978">
        <ele>1384.3198242188</ele>
        <time>2020-06-16T15:02:09.682Z</time>
      </trkpt>
      <trkpt lat="45.90758" lon="6.46991">
        <ele>1387.4077148438</ele>
        <time>2020-06-16T15:02:10.804Z</time>
      </trkpt>
      <trkpt lat="45.90727" lon="6.46998">
        <ele>1396.5515136719</ele>
        <time>2020-06-16T15:02:11.936Z</time>
      </trkpt>
      <trkpt lat="45.90704" lon="6.46991">
        <ele>1400.4361572266</ele>
        <time>2020-06-16T15:02:13.076Z</time>
      </trkpt>
      <trkpt lat="45.9068" lon="6.47002">
        <ele>1400.7198486328</ele>
        <time>2020-06-16T15:02:14.225Z</time>
      </trkpt>
      <trkpt lat="45.90651" lon="6.47042">
        <ele>1400.9652099609</ele>
        <time>2020-06-16T15:02:15.387Z</time>
      </trkpt>
      <trkpt lat="45.90683" lon="6.47103">
        <ele>1388.7662353516</ele>
        <time>2020-06-16T15:02:16.567Z</time>
      </trkpt>
      <trkpt lat="45.90695" lon="6.47116">
        <ele>1384.8658447266</ele>
        <time>2020-06-16T15:02:17.752Z</time>
      </trkpt>
      <trkpt lat="45.90721" lon="6.47182">
        <ele>1375.8641357422</ele>
        <time>2020-06-16T15:02:18.954Z</time>
      </trkpt>
      <trkpt lat="45.90732" lon="6.47276">
        <ele>1382.2702636719</ele>
        <time>2020-06-16T15:02:20.178Z</time>
      </trkpt>
      <trkpt lat="45.90754" lon="6.47304">
        <ele>1380.9830322266</ele>
        <time>2020-06-16T15:02:21.412Z</time>
      </trkpt>
      <trkpt lat="45.90856" lon="6.47349">
        <ele>1370.4799804688</ele>
        <time>2020-06-16T15:02:22.682Z</time>
      </trkpt>
      <trkpt lat="45.90869" lon="6.47365">
        <ele>1374.341796875</ele>
        <time>2020-06-16T15:02:23.958Z</time>
      </trkpt>
      <trkpt lat="45.90916" lon="6.47393">
        <ele>1383.9040527344</ele>
        <time>2020-06-16T15:02:25.251Z</time>
      </trkpt>
      <trkpt lat="45.90952" lon="6.47385">
        <ele>1385.5645751953</ele>
        <time>2020-06-16T15:02:26.556Z</time>
      </trkpt>
      <trkpt lat="45.90968" lon="6.47398">
        <ele>1391.0096435547</ele>
        <time>2020-06-16T15:02:27.867Z</time>
      </trkpt>
      <trkpt lat="45.91013" lon="6.47374">
        <ele>1400.85546875</ele>
        <time>2020-06-16T15:02:29.194Z</time>
      </trkpt>
      <trkpt lat="45.9112" lon="6.47255">
        <ele>1386.6047363281</ele>
        <time>2020-06-16T15:02:30.566Z</time>
      </trkpt>
      <trkpt lat="45.91156" lon="6.47241">
        <ele>1395.89453125</ele>
        <time>2020-06-16T15:02:31.951Z</time>
      </trkpt>
      <trkpt lat="45.91242" lon="6.47156">
        <ele>1389.4825439453</ele>
        <time>2020-06-16T15:02:33.370Z</time>
      </trkpt>
      <trkpt lat="45.91285" lon="6.47082">
        <ele>1376.0179443359</ele>
        <time>2020-06-16T15:02:34.812Z</time>
      </trkpt>
      <trkpt lat="45.91315" lon="6.46987">
        <ele>1362.1148681641</ele>
        <time>2020-06-16T15:02:36.278Z</time>
      </trkpt>
      <trkpt lat="45.9133" lon="6.47051">
        <ele>1373.0435791016</ele>
        <time>2020-06-16T15:02:37.760Z</time>
      </trkpt>
      <trkpt lat="45.91368" lon="6.47109">
        <ele>1376.7877197266</ele>
        <time>2020-06-16T15:02:39.260Z</time>
      </trkpt>
      <trkpt lat="45.91402" lon="6.47118">
        <ele>1373.8270263672</ele>
        <time>2020-06-16T15:02:40.772Z</time>
      </trkpt>
      <trkpt lat="45.91407" lon="6.47128">
        <ele>1374.4666748047</ele>
        <time>2020-06-16T15:02:42.286Z</time>
      </trkpt>
      <trkpt lat="45.91407" lon="6.47128">
        <ele>1374.4645996094</ele>
        <time>2020-06-16T15:02:43.801Z</time>
      </trkpt>
      <trkpt lat="45.91418" lon="6.47153">
        <ele>1375.5654296875</ele>
        <time>2020-06-16T15:02:45.322Z</time>
      </trkpt>
      <trkpt lat="45.91492" lon="6.47138">
        <ele>1369.4678955078</ele>
        <time>2020-06-16T15:02:46.868Z</time>
      </trkpt>
      <trkpt lat="45.91592" lon="6.47213">
        <ele>1375.6114501953</ele>
        <time>2020-06-16T15:02:48.452Z</time>
      </trkpt>
      <trkpt lat="45.91751" lon="6.47364">
        <ele>1387.2171630859</ele>
        <time>2020-06-16T15:02:50.099Z</time>
      </trkpt>
      <trkpt lat="45.9177" lon="6.47397">
        <ele>1388.1062011719</ele>
        <time>2020-06-16T15:02:51.756Z</time>
      </trkpt>
      <trkpt lat="45.9177" lon="6.47397">
        <ele>1388.1053466797</ele>
        <time>2020-06-16T15:02:53.413Z</time>
      </trkpt>
      <trkpt lat="45.91802" lon="6.47448">
        <ele>1391.4987792969</ele>
        <time>2020-06-16T15:02:55.086Z</time>
      </trkpt>
      <trkpt lat="45.9182" lon="6.47476">
        <ele>1393.9534912109</ele>
        <time>2020-06-16T15:02:56.768Z</time>
      </trkpt>
      <trkpt lat="45.91967" lon="6.47816">
        <ele>1411.3251953125</ele>
        <time>2020-06-16T15:02:58.543Z</time>
      </trkpt>
      <trkpt lat="45.91995" lon="6.47878">
        <ele>1413.0004882812</ele>
        <time>2020-06-16T15:03:00.336Z</time>
      </trkpt>
      <trkpt lat="45.92032" lon="6.48041">
        <ele>1419.5760498047</ele>
        <time>2020-06-16T15:03:02.168Z</time>
      </trkpt>
      <trkpt lat="45.92052" lon="6.48066">
        <ele>1421.6446533203</ele>
        <time>2020-06-16T15:03:04.009Z</time>
      </trkpt>
      <trkpt lat="45.9206" lon="6.48113">
        <ele>1423.7083740234</ele>
        <time>2020-06-16T15:03:05.862Z</time>
      </trkpt>
      <trkpt lat="45.92059" lon="6.48158">
        <ele>1425.9267578125</ele>
        <time>2020-06-16T15:03:07.725Z</time>
      </trkpt>
      <trkpt lat="45.92085" lon="6.48311">
        <ele>1443.9675292969</ele>
        <time>2020-06-16T15:03:09.625Z</time>
      </trkpt>
      <trkpt lat="45.92083" lon="6.48326">
        <ele>1445.5054931641</ele>
        <time>2020-06-16T15:03:11.528Z</time>
      </trkpt>
      <trkpt lat="45.92081" lon="6.48358">
        <ele>1448.5280761719</ele>
        <time>2020-06-16T15:03:13.439Z</time>
      </trkpt>
      <trkpt lat="45.92077" lon="6.48445">
        <ele>1457.82421875</ele>
        <time>2020-06-16T15:03:15.370Z</time>
      </trkpt>
      <trkpt lat="45.92085" lon="6.48487">
        <ele>1460.6635742188</ele>
        <time>2020-06-16T15:03:17.311Z</time>
      </trkpt>
      <trkpt lat="45.92151" lon="6.48503">
        <ele>1446.3902587891</ele>
        <time>2020-06-16T15:03:19.275Z</time>
      </trkpt>
      <trkpt lat="45.92141" lon="6.48564">
        <ele>1450.5352783203</ele>
        <time>2020-06-16T15:03:21.253Z</time>
      </trkpt>
      <trkpt lat="45.92118" lon="6.48645">
        <ele>1457.2388916016</ele>
        <time>2020-06-16T15:03:23.252Z</time>
      </trkpt>
      <trkpt lat="45.92122" lon="6.48668">
        <ele>1456.6669921875</ele>
        <time>2020-06-16T15:03:25.256Z</time>
      </trkpt>
      <trkpt lat="45.92154" lon="6.48718">
        <ele>1445.4519042969</ele>
        <time>2020-06-16T15:03:27.276Z</time>
      </trkpt>
      <trkpt lat="45.92179" lon="6.4881">
        <ele>1444.2154541016</ele>
        <time>2020-06-16T15:03:29.319Z</time>
      </trkpt>
      <trkpt lat="45.92162" lon="6.48862">
        <ele>1454.4049072266</ele>
        <time>2020-06-16T15:03:31.375Z</time>
      </trkpt>
      <trkpt lat="45.92162" lon="6.48882">
        <ele>1454.1602783203</ele>
        <time>2020-06-16T15:03:33.436Z</time>
      </trkpt>
      <trkpt lat="45.92161" lon="6.49011">
        <ele>1466.3480224609</ele>
        <time>2020-06-16T15:03:35.527Z</time>
      </trkpt>
      <trkpt lat="45.92182" lon="6.49087">
        <ele>1478.1853027344</ele>
        <time>2020-06-16T15:03:37.637Z</time>
      </trkpt>
      <trkpt lat="45.92204" lon="6.49221">
        <ele>1505.7375488281</ele>
        <time>2020-06-16T15:03:39.779Z</time>
      </trkpt>
      <trkpt lat="45.92205" lon="6.49251">
        <ele>1511.912109375</ele>
        <time>2020-06-16T15:03:41.928Z</time>
      </trkpt>
      <trkpt lat="45.92199" lon="6.49251">
        <ele>1512.0408935547</ele>
        <time>2020-06-16T15:03:44.079Z</time>
      </trkpt>
      <trkpt lat="45.92203" lon="6.49295">
        <ele>1520.4079589844</ele>
        <time>2020-06-16T15:03:46.240Z</time>
      </trkpt>
      <trkpt lat="45.92223" lon="6.49331">
        <ele>1527.2796630859</ele>
        <time>2020-06-16T15:03:48.412Z</time>
      </trkpt>
      <trkpt lat="45.92221" lon="6.49356">
        <ele>1533.35546875</ele>
        <time>2020-06-16T15:03:50.590Z</time>
      </trkpt>
      <trkpt lat="45.92229" lon="6.4941">
        <ele>1546.4587402344</ele>
        <time>2020-06-16T15:03:52.781Z</time>
      </trkpt>
      <trkpt lat="45.92245" lon="6.49484">
        <ele>1568.8830566406</ele>
        <time>2020-06-16T15:03:54.990Z</time>
      </trkpt>
      <trkpt lat="45.9224" lon="6.49493">
        <ele>1571.3287353516</ele>
        <time>2020-06-16T15:03:57.201Z</time>
      </trkpt>
      <trkpt lat="45.92249" lon="6.49514">
        <ele>1580.4346923828</ele>
        <time>2020-06-16T15:03:59.418Z</time>
      </trkpt>
      <trkpt lat="45.92249" lon="6.49547">
        <ele>1594.4013671875</ele>
        <time>2020-06-16T15:04:01.643Z</time>
      </trkpt>
      <trkpt lat="45.92256" lon="6.49556">
        <ele>1598.4561767578</ele>
        <time>2020-06-16T15:04:03.871Z</time>
      </trkpt>
      <trkpt lat="45.9226" lon="6.49597">
        <ele>1619.0817871094</ele>
        <time>2020-06-16T15:04:06.109Z</time>
      </trkpt>
      <trkpt lat="45.92237" lon="6.49613">
        <ele>1624.5760498047</ele>
        <time>2020-06-16T15:04:08.355Z</time>
      </trkpt>
      <trkpt lat="45.92242" lon="6.49626">
        <ele>1631.3341064453</ele>
        <time>2020-06-16T15:04:10.605Z</time>
      </trkpt>
      <trkpt lat="45.92232" lon="6.49647">
        <ele>1640.4735107422</ele>
        <time>2020-06-16T15:04:12.861Z</time>
      </trkpt>
      <trkpt lat="45.9222" lon="6.49651">
        <ele>1641.9464111328</ele>
        <time>2020-06-16T15:04:15.121Z</time>
      </trkpt>
      <trkpt lat="45.9222" lon="6.49668">
        <ele>1648.7044677734</ele>
        <time>2020-06-16T15:04:17.385Z</time>
      </trkpt>
      <trkpt lat="45.92232" lon="6.49687">
        <ele>1659.3642578125</ele>
        <time>2020-06-16T15:04:19.655Z</time>
      </trkpt>
      <trkpt lat="45.92229" lon="6.49704">
        <ele>1665.7747802734</ele>
        <time>2020-06-16T15:04:21.929Z</time>
      </trkpt>
      <trkpt lat="45.92211" lon="6.49718">
        <ele>1670.6004638672</ele>
        <time>2020-06-16T15:04:24.210Z</time>
      </trkpt>
      <trkpt lat="45.92195" lon="6.49747">
        <ele>1685.0207519531</ele>
        <time>2020-06-16T15:04:26.499Z</time>
      </trkpt>
      <trkpt lat="45.92145" lon="6.4978">
        <ele>1697.6931152344</ele>
        <time>2020-06-16T15:04:28.807Z</time>
      </trkpt>
      <trkpt lat="45.92096" lon="6.49746">
        <ele>1691.7353515625</ele>
        <time>2020-06-16T15:04:31.133Z</time>
      </trkpt>
      <trkpt lat="45.92034" lon="6.49734">
        <ele>1701.6561279297</ele>
        <time>2020-06-16T15:04:33.480Z</time>
      </trkpt>
      <trkpt lat="45.92029" lon="6.49749">
        <ele>1708.0794677734</ele>
        <time>2020-06-16T15:04:35.831Z</time>
      </trkpt>
      <trkpt lat="45.92039" lon="6.49851">
        <ele>1743.0057373047</ele>
        <time>2020-06-16T15:04:38.206Z</time>
      </trkpt>
      <trkpt lat="45.92031" lon="6.49876">
        <ele>1757.7158203125</ele>
        <time>2020-06-16T15:04:40.587Z</time>
      </trkpt>
      <trkpt lat="45.92021" lon="6.49866">
        <ele>1756.6732177734</ele>
        <time>2020-06-16T15:04:42.972Z</time>
      </trkpt>
      <trkpt lat="45.92008" lon="6.4987">
        <ele>1760.4320068359</ele>
        <time>2020-06-16T15:04:45.361Z</time>
      </trkpt>
      <trkpt lat="45.92004" lon="6.49886">
        <ele>1766.0830078125</ele>
        <time>2020-06-16T15:04:47.754Z</time>
      </trkpt>
      <trkpt lat="45.91944" lon="6.4996">
        <ele>1806.1596679688</ele>
        <time>2020-06-16T15:04:50.174Z</time>
      </trkpt>
      <trkpt lat="45.91931" lon="6.49957">
        <ele>1810.3303222656</ele>
        <time>2020-06-16T15:04:52.598Z</time>
      </trkpt>
      <trkpt lat="45.91921" lon="6.49937">
        <ele>1808.2835693359</ele>
        <time>2020-06-16T15:04:55.028Z</time>
      </trkpt>
      <trkpt lat="45.91902" lon="6.49942">
        <ele>1817.474609375</ele>
        <time>2020-06-16T15:04:57.464Z</time>
      </trkpt>
      <trkpt lat="45.9187" lon="6.49913">
        <ele>1822.8562011719</ele>
        <time>2020-06-16T15:04:59.913Z</time>
      </trkpt>
      <trkpt lat="45.91867" lon="6.49948">
        <ele>1834.1711425781</ele>
        <time>2020-06-16T15:05:02.370Z</time>
      </trkpt>
      <trkpt lat="45.91842" lon="6.49942">
        <ele>1843.1544189453</ele>
        <time>2020-06-16T15:05:04.836Z</time>
      </trkpt>
      <trkpt lat="45.91835" lon="6.49915">
        <ele>1839.19140625</ele>
        <time>2020-06-16T15:05:07.308Z</time>
      </trkpt>
      <trkpt lat="45.91823" lon="6.49914">
        <ele>1844.1215820312</ele>
        <time>2020-06-16T15:05:09.784Z</time>
      </trkpt>
      <trkpt lat="45.91752" lon="6.49941">
        <ele>1877.818359375</ele>
        <time>2020-06-16T15:05:12.285Z</time>
      </trkpt>
      <trkpt lat="45.91718" lon="6.49929">
        <ele>1888.1229248047</ele>
        <time>2020-06-16T15:05:14.797Z</time>
      </trkpt>
      <trkpt lat="45.91686" lon="6.49898">
        <ele>1889.3308105469</ele>
        <time>2020-06-16T15:05:17.322Z</time>
      </trkpt>
      <trkpt lat="45.91667" lon="6.49965">
        <ele>1907.025390625</ele>
        <time>2020-06-16T15:05:19.864Z</time>
      </trkpt>
      <trkpt lat="45.91671" lon="6.50009">
        <ele>1916.060546875</ele>
        <time>2020-06-16T15:05:22.416Z</time>
      </trkpt>
      <trkpt lat="45.91689" lon="6.50062">
        <ele>1934.8763427734</ele>
        <time>2020-06-16T15:05:24.982Z</time>
      </trkpt>
      <trkpt lat="45.91718" lon="6.50082">
        <ele>1931.4512939453</ele>
        <time>2020-06-16T15:05:27.559Z</time>
      </trkpt>
      <trkpt lat="45.91707" lon="6.50088">
        <ele>1937.681640625</ele>
        <time>2020-06-16T15:05:30.139Z</time>
      </trkpt>
      <trkpt lat="45.91712" lon="6.501">
        <ele>1939.7927246094</ele>
        <time>2020-06-16T15:05:32.723Z</time>
      </trkpt>
      <trkpt lat="45.91699" lon="6.50102">
        <ele>1945.3278808594</ele>
        <time>2020-06-16T15:05:35.311Z</time>
      </trkpt>
      <trkpt lat="45.91705" lon="6.50126">
        <ele>1951.5452880859</ele>
        <time>2020-06-16T15:05:37.905Z</time>
      </trkpt>
      <trkpt lat="45.91685" lon="6.50119">
        <ele>1958.0837402344</ele>
        <time>2020-06-16T15:05:40.505Z</time>
      </trkpt>
      <trkpt lat="45.91692" lon="6.50144">
        <ele>1968.2143554688</ele>
        <time>2020-06-16T15:05:43.112Z</time>
      </trkpt>
      <trkpt lat="45.91658" lon="6.50142">
        <ele>1987.1883544922</ele>
        <time>2020-06-16T15:05:45.730Z</time>
      </trkpt>
      <trkpt lat="45.91669" lon="6.50172">
        <ele>1991.7197265625</ele>
        <time>2020-06-16T15:05:48.356Z</time>
      </trkpt>
      <trkpt lat="45.9165" lon="6.50169">
        <ele>2001.119140625</ele>
        <time>2020-06-16T15:05:50.989Z</time>
      </trkpt>
      <trkpt lat="45.91656" lon="6.50191">
        <ele>2002.6252441406</ele>
        <time>2020-06-16T15:05:53.627Z</time>
      </trkpt>
      <trkpt lat="45.91638" lon="6.50182">
        <ele>2009.2233886719</ele>
        <time>2020-06-16T15:05:56.272Z</time>
      </trkpt>
      <trkpt lat="45.9166" lon="6.50277">
        <ele>2024.6220703125</ele>
        <time>2020-06-16T15:05:58.940Z</time>
      </trkpt>
      <trkpt lat="45.91654" lon="6.50291">
        <ele>2029.6165771484</ele>
        <time>2020-06-16T15:06:01.611Z</time>
      </trkpt>
      <trkpt lat="45.91645" lon="6.50283">
        <ele>2030.3889160156</ele>
        <time>2020-06-16T15:06:04.286Z</time>
      </trkpt>
      <trkpt lat="45.91617" lon="6.50434">
        <ele>2078.47265625</ele>
        <time>2020-06-16T15:06:06.997Z</time>
      </trkpt>
      <trkpt lat="45.91608" lon="6.5045">
        <ele>2084.4582519531</ele>
        <time>2020-06-16T15:06:09.713Z</time>
      </trkpt>
      <trkpt lat="45.91607" lon="6.50494">
        <ele>2095.62109375</ele>
        <time>2020-06-16T15:06:12.439Z</time>
      </trkpt>
      <trkpt lat="45.9157" lon="6.50483">
        <ele>2095.5317382812</ele>
        <time>2020-06-16T15:06:15.178Z</time>
      </trkpt>
      <trkpt lat="45.91541" lon="6.50488">
        <ele>2103.2478027344</ele>
        <time>2020-06-16T15:06:17.927Z</time>
      </trkpt>
      <trkpt lat="45.91531" lon="6.50501">
        <ele>2109.6970214844</ele>
        <time>2020-06-16T15:06:20.680Z</time>
      </trkpt>
      <trkpt lat="45.91517" lon="6.50502">
        <ele>2114.1765136719</ele>
        <time>2020-06-16T15:06:23.438Z</time>
      </trkpt>
      <trkpt lat="45.9152" lon="6.50519">
        <ele>2117.9482421875</ele>
        <time>2020-06-16T15:06:26.200Z</time>
      </trkpt>
      <trkpt lat="45.91515" lon="6.50527">
        <ele>2121.5490722656</ele>
        <time>2020-06-16T15:06:28.964Z</time>
      </trkpt>
      <trkpt lat="45.91508" lon="6.50519">
        <ele>2121.4460449219</ele>
        <time>2020-06-16T15:06:31.731Z</time>
      </trkpt>
      <trkpt lat="45.91502" lon="6.50574">
        <ele>2136.8889160156</ele>
        <time>2020-06-16T15:06:34.511Z</time>
      </trkpt>
      <trkpt lat="45.91497" lon="6.50584">
        <ele>2141.4328613281</ele>
        <time>2020-06-16T15:06:37.294Z</time>
      </trkpt>
      <trkpt lat="45.91477" lon="6.50561">
        <ele>2139.69921875</ele>
        <time>2020-06-16T15:06:40.085Z</time>
      </trkpt>
      <trkpt lat="45.91461" lon="6.50527">
        <ele>2136.6042480469</ele>
        <time>2020-06-16T15:06:42.886Z</time>
      </trkpt>
      <trkpt lat="45.91409" lon="6.50508">
        <ele>2149.9790039062</ele>
        <time>2020-06-16T15:06:45.705Z</time>
      </trkpt>
      <trkpt lat="45.91395" lon="6.50557">
        <ele>2170.3044433594</ele>
        <time>2020-06-16T15:06:48.536Z</time>
      </trkpt>
      <trkpt lat="45.91399" lon="6.50579">
        <ele>2173.8037109375</ele>
        <time>2020-06-16T15:06:51.373Z</time>
      </trkpt>
      <trkpt lat="45.91412" lon="6.50598">
        <ele>2171.9499511719</ele>
        <time>2020-06-16T15:06:54.216Z</time>
      </trkpt>
      <trkpt lat="45.91413" lon="6.50633">
        <ele>2176.6740722656</ele>
        <time>2020-06-16T15:06:57.067Z</time>
      </trkpt>
      <trkpt lat="45.91406" lon="6.50657">
        <ele>2183.810546875</ele>
        <time>2020-06-16T15:06:59.924Z</time>
      </trkpt>
      <trkpt lat="45.91415" lon="6.50678">
        <ele>2188.4145507812</ele>
        <time>2020-06-16T15:07:02.787Z</time>
      </trkpt>
      <trkpt lat="45.91411" lon="6.50714">
        <ele>2198.3134765625</ele>
        <time>2020-06-16T15:07:05.658Z</time>
      </trkpt>
      <trkpt lat="45.91419" lon="6.50721">
        <ele>2198.2490234375</ele>
        <time>2020-06-16T15:07:08.532Z</time>
      </trkpt>
      <trkpt lat="45.91419" lon="6.50741">
        <ele>2204.5344238281</ele>
        <time>2020-06-16T15:07:11.411Z</time>
      </trkpt>
      <trkpt lat="45.91427" lon="6.50754">
        <ele>2207.919921875</ele>
        <time>2020-06-16T15:07:14.294Z</time>
      </trkpt>
      <trkpt lat="45.91429" lon="6.50809">
        <ele>2222.462890625</ele>
        <time>2020-06-16T15:07:17.190Z</time>
      </trkpt>
      <trkpt lat="45.91454" lon="6.50855">
        <ele>2232.1625976562</ele>
        <time>2020-06-16T15:07:20.099Z</time>
      </trkpt>
      <trkpt lat="45.91445" lon="6.5087">
        <ele>2236.1787109375</ele>
        <time>2020-06-16T15:07:23.013Z</time>
      </trkpt>
      <trkpt lat="45.91456" lon="6.50914">
        <ele>2248.5161132812</ele>
        <time>2020-06-16T15:07:25.938Z</time>
      </trkpt>
      <trkpt lat="45.91448" lon="6.50928">
        <ele>2255.1196289062</ele>
        <time>2020-06-16T15:07:28.867Z</time>
      </trkpt>
      <trkpt lat="45.91467" lon="6.5096">
        <ele>2270.7854003906</ele>
        <time>2020-06-16T15:07:31.806Z</time>
      </trkpt>
      <trkpt lat="45.91465" lon="6.50977">
        <ele>2278.5017089844</ele>
        <time>2020-06-16T15:07:34.749Z</time>
      </trkpt>
      <trkpt lat="45.91485" lon="6.5098">
        <ele>2282.8176269531</ele>
        <time>2020-06-16T15:07:37.698Z</time>
      </trkpt>
      <trkpt lat="45.91469" lon="6.51013">
        <ele>2293.8012695312</ele>
        <time>2020-06-16T15:07:40.656Z</time>
      </trkpt>
      <trkpt lat="45.91479" lon="6.51017">
        <ele>2298.8967285156</ele>
        <time>2020-06-16T15:07:43.618Z</time>
      </trkpt>
      <trkpt lat="45.91486" lon="6.51048">
        <ele>2314.8713378906</ele>
        <time>2020-06-16T15:07:46.588Z</time>
      </trkpt>
      <trkpt lat="45.91503" lon="6.51079">
        <ele>2336.1071777344</ele>
        <time>2020-06-16T15:07:49.567Z</time>
      </trkpt>
      <trkpt lat="45.91523" lon="6.51092">
        <ele>2350.3696289062</ele>
        <time>2020-06-16T15:07:52.553Z</time>
      </trkpt>
      <trkpt lat="45.91516" lon="6.51102">
        <ele>2353.4077148438</ele>
        <time>2020-06-16T15:07:55.543Z</time>
      </trkpt>
      <trkpt lat="45.91524" lon="6.51106">
        <ele>2358.7626953125</ele>
        <time>2020-06-16T15:07:58.536Z</time>
      </trkpt>
      <trkpt lat="45.91512" lon="6.51166">
        <ele>2381.0837402344</ele>
        <time>2020-06-16T15:08:01.543Z</time>
      </trkpt>
      <trkpt lat="45.91523" lon="6.51171">
        <ele>2388.2666015625</ele>
        <time>2020-06-16T15:08:04.554Z</time>
      </trkpt>
      <trkpt lat="45.9154" lon="6.51195">
        <ele>2405.9663085938</ele>
        <time>2020-06-16T15:08:07.573Z</time>
      </trkpt>
      <trkpt lat="45.9155" lon="6.51187">
        <ele>2407.2536621094</ele>
        <time>2020-06-16T15:08:10.596Z</time>
      </trkpt>
      <trkpt lat="45.91566" lon="6.51194">
        <ele>2410.4470214844</ele>
        <time>2020-06-16T15:08:13.625Z</time>
      </trkpt>
      <trkpt lat="45.91561" lon="6.51203">
        <ele>2415.7890625</ele>
        <time>2020-06-16T15:08:16.657Z</time>
      </trkpt>
      <trkpt lat="45.91574" lon="6.51244">
        <ele>2418.1711425781</ele>
        <time>2020-06-16T15:08:19.699Z</time>
      </trkpt>
      <trkpt lat="45.91586" lon="6.5126">
        <ele>2404.1145019531</ele>
        <time>2020-06-16T15:08:22.747Z</time>
      </trkpt>
      <trkpt lat="45.91588" lon="6.51293">
        <ele>2387.75</ele>
        <time>2020-06-16T15:08:25.802Z</time>
      </trkpt>
      <trkpt lat="45.91577" lon="6.51347">
        <ele>2373.3210449219</ele>
        <time>2020-06-16T15:08:28.870Z</time>
      </trkpt>
      <trkpt lat="45.91577" lon="6.51347">
        <ele>2373.3178710938</ele>
        <time>2020-06-16T15:08:31.938Z</time>
      </trkpt>
      <trkpt lat="45.91575" lon="6.51357">
        <ele>2370.1752929688</ele>
        <time>2020-06-16T15:08:35.009Z</time>
      </trkpt>
      <trkpt lat="45.91558" lon="6.51387">
        <ele>2365.6442871094</ele>
        <time>2020-06-16T15:08:38.089Z</time>
      </trkpt>
      <trkpt lat="45.91562" lon="6.51412">
        <ele>2356.6157226562</ele>
        <time>2020-06-16T15:08:41.175Z</time>
      </trkpt>
      <trkpt lat="45.9157" lon="6.51411">
        <ele>2353.6906738281</ele>
        <time>2020-06-16T15:08:44.263Z</time>
      </trkpt>
      <trkpt lat="45.91564" lon="6.51432">
        <ele>2351.8015136719</ele>
        <time>2020-06-16T15:08:47.357Z</time>
      </trkpt>
      <trkpt lat="45.91565" lon="6.51453">
        <ele>2347.4377441406</ele>
        <time>2020-06-16T15:08:50.455Z</time>
      </trkpt>
      <trkpt lat="45.91579" lon="6.51489">
        <ele>2337.3610839844</ele>
        <time>2020-06-16T15:08:53.563Z</time>
      </trkpt>
      <trkpt lat="45.91582" lon="6.51545">
        <ele>2340.6508789062</ele>
        <time>2020-06-16T15:08:56.684Z</time>
      </trkpt>
      <trkpt lat="45.91596" lon="6.51575">
        <ele>2339.0817871094</ele>
        <time>2020-06-16T15:08:59.814Z</time>
      </trkpt>
      <trkpt lat="45.91632" lon="6.51603">
        <ele>2337.4470214844</ele>
        <time>2020-06-16T15:09:02.957Z</time>
      </trkpt>
      <trkpt lat="45.9166" lon="6.5161">
        <ele>2337.7863769531</ele>
        <time>2020-06-16T15:09:06.109Z</time>
      </trkpt>
      <trkpt lat="45.9169" lon="6.51657">
        <ele>2341.9174804688</ele>
        <time>2020-06-16T15:09:09.276Z</time>
      </trkpt>
      <trkpt lat="45.91752" lon="6.51678">
        <ele>2343.5632324219</ele>
        <time>2020-06-16T15:09:12.465Z</time>
      </trkpt>
      <trkpt lat="45.91779" lon="6.51693">
        <ele>2341.9155273438</ele>
        <time>2020-06-16T15:09:15.663Z</time>
      </trkpt>
      <trkpt lat="45.91785" lon="6.51709">
        <ele>2344.9663085938</ele>
        <time>2020-06-16T15:09:18.865Z</time>
      </trkpt>
      <trkpt lat="45.91803" lon="6.51702">
        <ele>2338.9548339844</ele>
        <time>2020-06-16T15:09:22.074Z</time>
      </trkpt>
      <trkpt lat="45.9181" lon="6.51718">
        <ele>2342.07421875</ele>
        <time>2020-06-16T15:09:25.287Z</time>
      </trkpt>
      <trkpt lat="45.91825" lon="6.51683">
        <ele>2329.716796875</ele>
        <time>2020-06-16T15:09:28.510Z</time>
      </trkpt>
      <trkpt lat="45.91831" lon="6.51683">
        <ele>2328.4809570312</ele>
        <time>2020-06-16T15:09:31.735Z</time>
      </trkpt>
      <trkpt lat="45.91839" lon="6.51704">
        <ele>2332.6645507812</ele>
        <time>2020-06-16T15:09:34.965Z</time>
      </trkpt>
      <trkpt lat="45.91882" lon="6.51695">
        <ele>2314.9099121094</ele>
        <time>2020-06-16T15:09:38.209Z</time>
      </trkpt>
      <trkpt lat="45.91873" lon="6.51647">
        <ele>2294.3469238281</ele>
        <time>2020-06-16T15:09:41.465Z</time>
      </trkpt>
      <trkpt lat="45.91882" lon="6.51653">
        <ele>2293.3229980469</ele>
        <time>2020-06-16T15:09:44.724Z</time>
      </trkpt>
      <trkpt lat="45.91919" lon="6.51578">
        <ele>2262.9877929688</ele>
        <time>2020-06-16T15:09:48.005Z</time>
      </trkpt>
      <trkpt lat="45.91936" lon="6.51521">
        <ele>2246.3083496094</ele>
        <time>2020-06-16T15:09:51.300Z</time>
      </trkpt>
      <trkpt lat="45.91953" lon="6.51518">
        <ele>2239.4731445312</ele>
        <time>2020-06-16T15:09:54.601Z</time>
      </trkpt>
      <trkpt lat="45.92014" lon="6.51464">
        <ele>2223.9255371094</ele>
        <time>2020-06-16T15:09:57.926Z</time>
      </trkpt>
      <trkpt lat="45.92049" lon="6.51371">
        <ele>2191.8266601562</ele>
        <time>2020-06-16T15:10:01.275Z</time>
      </trkpt>
      <trkpt lat="45.92038" lon="6.51348">
        <ele>2181.9663085938</ele>
        <time>2020-06-16T15:10:04.631Z</time>
      </trkpt>
      <trkpt lat="45.92046" lon="6.51271">
        <ele>2163.6838378906</ele>
        <time>2020-06-16T15:10:08.005Z</time>
      </trkpt>
      <trkpt lat="45.92021" lon="6.51159">
        <ele>2139.5964355469</ele>
        <time>2020-06-16T15:10:11.406Z</time>
      </trkpt>
      <trkpt lat="45.92026" lon="6.51146">
        <ele>2134.5476074219</ele>
        <time>2020-06-16T15:10:14.810Z</time>
      </trkpt>
      <trkpt lat="45.92021" lon="6.51109">
        <ele>2128.5324707031</ele>
        <time>2020-06-16T15:10:18.223Z</time>
      </trkpt>
      <trkpt lat="45.92031" lon="6.51099">
        <ele>2116.6384277344</ele>
        <time>2020-06-16T15:10:21.640Z</time>
      </trkpt>
      <trkpt lat="45.92041" lon="6.51105">
        <ele>2113.39453125</ele>
        <time>2020-06-16T15:10:25.061Z</time>
      </trkpt>
      <trkpt lat="45.92049" lon="6.51083">
        <ele>2096.2741699219</ele>
        <time>2020-06-16T15:10:28.488Z</time>
      </trkpt>
      <trkpt lat="45.9208" lon="6.51092">
        <ele>2085.2421875</ele>
        <time>2020-06-16T15:10:31.925Z</time>
      </trkpt>
      <trkpt lat="45.92091" lon="6.51073">
        <ele>2076.9562988281</ele>
        <time>2020-06-16T15:10:35.368Z</time>
      </trkpt>
      <trkpt lat="45.92148" lon="6.51077">
        <ele>2066.7824707031</ele>
        <time>2020-06-16T15:10:38.830Z</time>
      </trkpt>
      <trkpt lat="45.92156" lon="6.51065">
        <ele>2059.8977050781</ele>
        <time>2020-06-16T15:10:42.296Z</time>
      </trkpt>
      <trkpt lat="45.92183" lon="6.51075">
        <ele>2058.298828125</ele>
        <time>2020-06-16T15:10:45.771Z</time>
      </trkpt>
      <trkpt lat="45.92243" lon="6.51065">
        <ele>2040.6411132812</ele>
        <time>2020-06-16T15:10:49.266Z</time>
      </trkpt>
      <trkpt lat="45.92244" lon="6.51056">
        <ele>2034.6553955078</ele>
        <time>2020-06-16T15:10:52.764Z</time>
      </trkpt>
      <trkpt lat="45.92274" lon="6.51031">
        <ele>2014.7396240234</ele>
        <time>2020-06-16T15:10:56.273Z</time>
      </trkpt>
      <trkpt lat="45.92303" lon="6.51027">
        <ele>2010.1441650391</ele>
        <time>2020-06-16T15:10:59.792Z</time>
      </trkpt>
      <trkpt lat="45.92298" lon="6.51014">
        <ele>2004.1069335938</ele>
        <time>2020-06-16T15:11:03.314Z</time>
      </trkpt>
      <trkpt lat="45.92304" lon="6.51004">
        <ele>1998.7005615234</ele>
        <time>2020-06-16T15:11:06.839Z</time>
      </trkpt>
      <trkpt lat="45.92299" lon="6.50997">
        <ele>1995.3665771484</ele>
        <time>2020-06-16T15:11:10.367Z</time>
      </trkpt>
      <trkpt lat="45.92299" lon="6.50997">
        <ele>1995.3658447266</ele>
        <time>2020-06-16T15:11:13.895Z</time>
      </trkpt>
      <trkpt lat="45.92269" lon="6.50955">
        <ele>1986.0548095703</ele>
        <time>2020-06-16T15:11:17.437Z</time>
      </trkpt>
      <trkpt lat="45.92271" lon="6.50944">
        <ele>1983.3316650391</ele>
        <time>2020-06-16T15:11:20.982Z</time>
      </trkpt>
      <trkpt lat="45.92303" lon="6.50937">
        <ele>1972.1326904297</ele>
        <time>2020-06-16T15:11:24.537Z</time>
      </trkpt>
      <trkpt lat="45.92337" lon="6.50914">
        <ele>1965.4936523438</ele>
        <time>2020-06-16T15:11:28.105Z</time>
      </trkpt>
      <trkpt lat="45.9235" lon="6.50838">
        <ele>1937.2022705078</ele>
        <time>2020-06-16T15:11:31.691Z</time>
      </trkpt>
      <trkpt lat="45.92316" lon="6.5078">
        <ele>1918.39453125</ele>
        <time>2020-06-16T15:11:35.294Z</time>
      </trkpt>
      <trkpt lat="45.92304" lon="6.50771">
        <ele>1919.1141357422</ele>
        <time>2020-06-16T15:11:38.902Z</time>
      </trkpt>
      <trkpt lat="45.92309" lon="6.50736">
        <ele>1900.6048583984</ele>
        <time>2020-06-16T15:11:42.518Z</time>
      </trkpt>
      <trkpt lat="45.92332" lon="6.50718">
        <ele>1883.5611572266</ele>
        <time>2020-06-16T15:11:46.143Z</time>
      </trkpt>
      <trkpt lat="45.92365" lon="6.50746">
        <ele>1879.4936523438</ele>
        <time>2020-06-16T15:11:49.781Z</time>
      </trkpt>
      <trkpt lat="45.92432" lon="6.50692">
        <ele>1844.5451660156</ele>
        <time>2020-06-16T15:11:53.444Z</time>
      </trkpt>
      <trkpt lat="45.92441" lon="6.50669">
        <ele>1838.0640869141</ele>
        <time>2020-06-16T15:11:57.114Z</time>
      </trkpt>
      <trkpt lat="45.9243" lon="6.50626">
        <ele>1831.3880615234</ele>
        <time>2020-06-16T15:12:00.794Z</time>
      </trkpt>
      <trkpt lat="45.92438" lon="6.50589">
        <ele>1822.8444824219</ele>
        <time>2020-06-16T15:12:04.483Z</time>
      </trkpt>
      <trkpt lat="45.92443" lon="6.50586">
        <ele>1821.4028320312</ele>
        <time>2020-06-16T15:12:08.174Z</time>
      </trkpt>
      <trkpt lat="45.92443" lon="6.50571">
        <ele>1818.8798828125</ele>
        <time>2020-06-16T15:12:11.868Z</time>
      </trkpt>
      <trkpt lat="45.9249" lon="6.50471">
        <ele>1777.7531738281</ele>
        <time>2020-06-16T15:12:15.591Z</time>
      </trkpt>
      <trkpt lat="45.92486" lon="6.50444">
        <ele>1772.1535644531</ele>
        <time>2020-06-16T15:12:19.320Z</time>
      </trkpt>
      <trkpt lat="45.9249" lon="6.50415">
        <ele>1762.3834228516</ele>
        <time>2020-06-16T15:12:23.056Z</time>
      </trkpt>
      <trkpt lat="45.92499" lon="6.50409">
        <ele>1757.36328125</ele>
        <time>2020-06-16T15:12:26.795Z</time>
      </trkpt>
      <trkpt lat="45.925" lon="6.50376">
        <ele>1745.0336914062</ele>
        <time>2020-06-16T15:12:30.542Z</time>
      </trkpt>
      <trkpt lat="45.92489" lon="6.50377">
        <ele>1749.7064208984</ele>
        <time>2020-06-16T15:12:34.292Z</time>
      </trkpt>
      <trkpt lat="45.92505" lon="6.50354">
        <ele>1734.4139404297</ele>
        <time>2020-06-16T15:12:38.050Z</time>
      </trkpt>
      <trkpt lat="45.92576" lon="6.50398">
        <ele>1724.4318847656</ele>
        <time>2020-06-16T15:12:41.834Z</time>
      </trkpt>
      <trkpt lat="45.92613" lon="6.504">
        <ele>1711.0972900391</ele>
        <time>2020-06-16T15:12:45.630Z</time>
      </trkpt>
      <trkpt lat="45.92624" lon="6.50386">
        <ele>1702.9349365234</ele>
        <time>2020-06-16T15:12:49.431Z</time>
      </trkpt>
      <trkpt lat="45.92655" lon="6.50395">
        <ele>1693.3953857422</ele>
        <time>2020-06-16T15:12:53.243Z</time>
      </trkpt>
      <trkpt lat="45.92677" lon="6.50436">
        <ele>1696.8873291016</ele>
        <time>2020-06-16T15:12:57.066Z</time>
      </trkpt>
      <trkpt lat="45.92698" lon="6.50456">
        <ele>1694.2613525391</ele>
        <time>2020-06-16T15:13:00.898Z</time>
      </trkpt>
      <trkpt lat="45.92724" lon="6.50467">
        <ele>1687.1854248047</ele>
        <time>2020-06-16T15:13:04.739Z</time>
      </trkpt>
      <trkpt lat="45.92758" lon="6.50499">
        <ele>1693.0738525391</ele>
        <time>2020-06-16T15:13:08.594Z</time>
      </trkpt>
      <trkpt lat="45.92797" lon="6.50496">
        <ele>1684.6166992188</ele>
        <time>2020-06-16T15:13:12.462Z</time>
      </trkpt>
      <trkpt lat="45.92819" lon="6.50518">
        <ele>1688.6002197266</ele>
        <time>2020-06-16T15:13:16.339Z</time>
      </trkpt>
      <trkpt lat="45.92841" lon="6.50516">
        <ele>1679.5772705078</ele>
        <time>2020-06-16T15:13:20.223Z</time>
      </trkpt>
      <trkpt lat="45.92882" lon="6.50485">
        <ele>1664.8884277344</ele>
        <time>2020-06-16T15:13:24.122Z</time>
      </trkpt>
      <trkpt lat="45.92859" lon="6.50488">
        <ele>1669.4852294922</ele>
        <time>2020-06-16T15:13:28.029Z</time>
      </trkpt>
      <trkpt lat="45.9283" lon="6.50451">
        <ele>1661.3558349609</ele>
        <time>2020-06-16T15:13:31.949Z</time>
      </trkpt>
      <trkpt lat="45.92889" lon="6.5039">
        <ele>1636.1729736328</ele>
        <time>2020-06-16T15:13:35.893Z</time>
      </trkpt>
      <trkpt lat="45.92864" lon="6.50343">
        <ele>1624.8753662109</ele>
        <time>2020-06-16T15:13:39.851Z</time>
      </trkpt>
      <trkpt lat="45.92864" lon="6.50343">
        <ele>1624.8771972656</ele>
        <time>2020-06-16T15:13:43.809Z</time>
      </trkpt>
      <trkpt lat="45.92838" lon="6.50296">
        <ele>1612.7657470703</ele>
        <time>2020-06-16T15:13:47.781Z</time>
      </trkpt>
      <trkpt lat="45.92822" lon="6.50294">
        <ele>1613.0617675781</ele>
        <time>2020-06-16T15:13:51.758Z</time>
      </trkpt>
      <trkpt lat="45.92807" lon="6.5024">
        <ele>1597.2716064453</ele>
        <time>2020-06-16T15:13:55.749Z</time>
      </trkpt>
      <trkpt lat="45.92788" lon="6.50201">
        <ele>1587.6875</ele>
        <time>2020-06-16T15:13:59.751Z</time>
      </trkpt>
      <trkpt lat="45.9278" lon="6.50196">
        <ele>1587.5329589844</ele>
        <time>2020-06-16T15:14:03.756Z</time>
      </trkpt>
      <trkpt lat="45.9272" lon="6.50102">
        <ele>1565.6356201172</ele>
        <time>2020-06-16T15:14:07.791Z</time>
      </trkpt>
      <trkpt lat="45.927" lon="6.50107">
        <ele>1573.7580566406</ele>
        <time>2020-06-16T15:14:11.832Z</time>
      </trkpt>
      <trkpt lat="45.92693" lon="6.50082">
        <ele>1567.2318115234</ele>
        <time>2020-06-16T15:14:15.880Z</time>
      </trkpt>
      <trkpt lat="45.92699" lon="6.50059">
        <ele>1557.7625732422</ele>
        <time>2020-06-16T15:14:19.933Z</time>
      </trkpt>
      <trkpt lat="45.92683" lon="6.50029">
        <ele>1554.3256835938</ele>
        <time>2020-06-16T15:14:23.995Z</time>
      </trkpt>
      <trkpt lat="45.92682" lon="6.4998">
        <ele>1536.8143310547</ele>
        <time>2020-06-16T15:14:28.069Z</time>
      </trkpt>
      <trkpt lat="45.92677" lon="6.49965">
        <ele>1536.18359375</ele>
        <time>2020-06-16T15:14:32.146Z</time>
      </trkpt>
      <trkpt lat="45.92677" lon="6.49843">
        <ele>1518.0711669922</ele>
        <time>2020-06-16T15:14:36.252Z</time>
      </trkpt>
      <trkpt lat="45.9266" lon="6.49782">
        <ele>1518.2545166016</ele>
        <time>2020-06-16T15:14:40.373Z</time>
      </trkpt>
      <trkpt lat="45.92659" lon="6.49755">
        <ele>1516.5552978516</ele>
        <time>2020-06-16T15:14:44.500Z</time>
      </trkpt>
      <trkpt lat="45.92625" lon="6.49686">
        <ele>1527.7200927734</ele>
        <time>2020-06-16T15:14:48.647Z</time>
      </trkpt>
      <trkpt lat="45.92631" lon="6.49643">
        <ele>1520.0114746094</ele>
        <time>2020-06-16T15:14:52.804Z</time>
      </trkpt>
      <trkpt lat="45.9264" lon="6.4962">
        <ele>1508.0148925781</ele>
        <time>2020-06-16T15:14:56.967Z</time>
      </trkpt>
      <trkpt lat="45.92637" lon="6.49597">
        <ele>1508.9803466797</ele>
        <time>2020-06-16T15:15:01.136Z</time>
      </trkpt>
      <trkpt lat="45.92641" lon="6.49529">
        <ele>1504.4178466797</ele>
        <time>2020-06-16T15:15:05.321Z</time>
      </trkpt>
      <trkpt lat="45.92652" lon="6.49483">
        <ele>1504.9521484375</ele>
        <time>2020-06-16T15:15:09.517Z</time>
      </trkpt>
      <trkpt lat="45.92659" lon="6.49475">
        <ele>1503.5975341797</ele>
        <time>2020-06-16T15:15:13.716Z</time>
      </trkpt>
      <trkpt lat="45.92671" lon="6.49459">
        <ele>1500.9874267578</ele>
        <time>2020-06-16T15:15:17.920Z</time>
      </trkpt>
      <trkpt lat="45.92687" lon="6.49453">
        <ele>1497.0484619141</ele>
        <time>2020-06-16T15:15:22.130Z</time>
      </trkpt>
      <trkpt lat="45.92737" lon="6.49484">
        <ele>1483.7864990234</ele>
        <time>2020-06-16T15:15:26.358Z</time>
      </trkpt>
      <trkpt lat="45.92751" lon="6.49487">
        <ele>1481.3278808594</ele>
        <time>2020-06-16T15:15:30.591Z</time>
      </trkpt>
      <trkpt lat="45.92763" lon="6.49473">
        <ele>1479.3682861328</ele>
        <time>2020-06-16T15:15:34.829Z</time>
      </trkpt>
      <trkpt lat="45.92738" lon="6.49428">
        <ele>1482.9739990234</ele>
        <time>2020-06-16T15:15:39.080Z</time>
      </trkpt>
      <trkpt lat="45.92708" lon="6.49323">
        <ele>1479.5278320312</ele>
        <time>2020-06-16T15:15:43.358Z</time>
      </trkpt>
      <trkpt lat="45.92687" lon="6.49279">
        <ele>1473.4632568359</ele>
        <time>2020-06-16T15:15:47.648Z</time>
      </trkpt>
      <trkpt lat="45.92636" lon="6.49258">
        <ele>1486.0883789062</ele>
        <time>2020-06-16T15:15:51.956Z</time>
      </trkpt>
      <trkpt lat="45.92618" lon="6.49231">
        <ele>1481.7145996094</ele>
        <time>2020-06-16T15:15:56.272Z</time>
      </trkpt>
      <trkpt lat="45.92495" lon="6.49195">
        <ele>1500.5069580078</ele>
        <time>2020-06-16T15:16:00.630Z</time>
      </trkpt>
      <trkpt lat="45.92433" lon="6.49107">
        <ele>1485.0905761719</ele>
        <time>2020-06-16T15:16:05.017Z</time>
      </trkpt>
      <trkpt lat="45.92372" lon="6.49111">
        <ele>1485.9146728516</ele>
        <time>2020-06-16T15:16:09.425Z</time>
      </trkpt>
      <trkpt lat="45.92298" lon="6.49056">
        <ele>1475.9521484375</ele>
        <time>2020-06-16T15:16:13.860Z</time>
      </trkpt>
      <trkpt lat="45.92253" lon="6.48999">
        <ele>1464.8171386719</ele>
        <time>2020-06-16T15:16:18.315Z</time>
      </trkpt>
      <trkpt lat="45.92253" lon="6.48999">
        <ele>1464.8121337891</ele>
        <time>2020-06-16T15:16:22.770Z</time>
      </trkpt>
      <trkpt lat="45.92162" lon="6.48882">
        <ele>1454.1602783203</ele>
        <time>2020-06-16T15:16:27.266Z</time>
      </trkpt>
      <trkpt lat="45.92162" lon="6.48882">
        <ele>1454.1595458984</ele>
        <time>2020-06-16T15:16:31.762Z</time>
      </trkpt>
      <trkpt lat="45.92162" lon="6.48862">
        <ele>1454.4049072266</ele>
        <time>2020-06-16T15:16:36.263Z</time>
      </trkpt>
      <trkpt lat="45.92179" lon="6.4881">
        <ele>1444.2154541016</ele>
        <time>2020-06-16T15:16:40.777Z</time>
      </trkpt>
      <trkpt lat="45.92154" lon="6.48718">
        <ele>1445.4519042969</ele>
        <time>2020-06-16T15:16:45.314Z</time>
      </trkpt>
      <trkpt lat="45.92122" lon="6.48668">
        <ele>1456.6669921875</ele>
        <time>2020-06-16T15:16:49.867Z</time>
      </trkpt>
      <trkpt lat="45.92118" lon="6.48645">
        <ele>1457.2388916016</ele>
        <time>2020-06-16T15:16:54.426Z</time>
      </trkpt>
      <trkpt lat="45.92141" lon="6.48564">
        <ele>1450.5352783203</ele>
        <time>2020-06-16T15:16:59.005Z</time>
      </trkpt>
      <trkpt lat="45.92151" lon="6.48503">
        <ele>1446.3902587891</ele>
        <time>2020-06-16T15:17:03.598Z</time>
      </trkpt>
      <trkpt lat="45.92164" lon="6.48488">
        <ele>1444.9384765625</ele>
        <time>2020-06-16T15:17:08.197Z</time>
      </trkpt>
      <trkpt lat="45.92164" lon="6.48488">
        <ele>1444.9338378906</ele>
        <time>2020-06-16T15:17:12.796Z</time>
      </trkpt>
      <trkpt lat="45.92226" lon="6.48414">
        <ele>1438.6401367188</ele>
        <time>2020-06-16T15:17:17.422Z</time>
      </trkpt>
      <trkpt lat="45.92247" lon="6.48395">
        <ele>1438.9172363281</ele>
        <time>2020-06-16T15:17:22.056Z</time>
      </trkpt>
      <trkpt lat="45.92371" lon="6.48338">
        <ele>1430.216796875</ele>
        <time>2020-06-16T15:17:26.734Z</time>
      </trkpt>
      <trkpt lat="45.9244" lon="6.48321">
        <ele>1426.2426757812</ele>
        <time>2020-06-16T15:17:31.435Z</time>
      </trkpt>
      <trkpt lat="45.92446" lon="6.48309">
        <ele>1426.7325439453</ele>
        <time>2020-06-16T15:17:36.139Z</time>
      </trkpt>
      <trkpt lat="45.92432" lon="6.4828">
        <ele>1427.1960449219</ele>
        <time>2020-06-16T15:17:40.852Z</time>
      </trkpt>
      <trkpt lat="45.92488" lon="6.483">
        <ele>1422.6015625</ele>
        <time>2020-06-16T15:17:45.584Z</time>
      </trkpt>
      <trkpt lat="45.9269" lon="6.48258">
        <ele>1410.4453125</ele>
        <time>2020-06-16T15:17:50.384Z</time>
      </trkpt>
      <trkpt lat="45.927" lon="6.48203">
        <ele>1419.0887451172</ele>
        <time>2020-06-16T15:17:55.197Z</time>
      </trkpt>
      <trkpt lat="45.92729" lon="6.48164">
        <ele>1422.3487548828</ele>
        <time>2020-06-16T15:18:00.023Z</time>
      </trkpt>
      <trkpt lat="45.92725" lon="6.48112">
        <ele>1434.6636962891</ele>
        <time>2020-06-16T15:18:04.861Z</time>
      </trkpt>
      <trkpt lat="45.92725" lon="6.48112">
        <ele>1434.6708984375</ele>
        <time>2020-06-16T15:18:09.699Z</time>
      </trkpt>
      <trkpt lat="45.92723" lon="6.48093">
        <ele>1440.4940185547</ele>
        <time>2020-06-16T15:18:14.542Z</time>
      </trkpt>
      <trkpt lat="45.9263" lon="6.47946">
        <ele>1477.0252685547</ele>
        <time>2020-06-16T15:18:19.431Z</time>
      </trkpt>
      <trkpt lat="45.92733" lon="6.47956">
        <ele>1454.3768310547</ele>
        <time>2020-06-16T15:18:24.355Z</time>
      </trkpt>
      <trkpt lat="45.92542" lon="6.47764">
        <ele>1494.4501953125</ele>
        <time>2020-06-16T15:18:29.356Z</time>
      </trkpt>
      <trkpt lat="45.92344" lon="6.47421">
        <ele>1503.1672363281</ele>
        <time>2020-06-16T15:18:34.461Z</time>
      </trkpt>
      <trkpt lat="45.92125" lon="6.47146">
        <ele>1506.0953369141</ele>
        <time>2020-06-16T15:18:39.663Z</time>
      </trkpt>
      <trkpt lat="45.92056" lon="6.46996">
        <ele>1513.3958740234</ele>
        <time>2020-06-16T15:18:44.907Z</time>
      </trkpt>
      <trkpt lat="45.92057" lon="6.46973">
        <ele>1515.9454345703</ele>
        <time>2020-06-16T15:18:50.156Z</time>
      </trkpt>
      <trkpt lat="45.9207" lon="6.46957">
        <ele>1518.0473632812</ele>
        <time>2020-06-16T15:18:55.411Z</time>
      </trkpt>
      <trkpt lat="45.92092" lon="6.4695">
        <ele>1519.3989257812</ele>
        <time>2020-06-16T15:19:00.674Z</time>
      </trkpt>
      <trkpt lat="45.92097" lon="6.46891">
        <ele>1526.8677978516</ele>
        <time>2020-06-16T15:19:05.950Z</time>
      </trkpt>
      <trkpt lat="45.92095" lon="6.46824">
        <ele>1536.107421875</ele>
        <time>2020-06-16T15:19:11.242Z</time>
      </trkpt>
      <trkpt lat="45.92106" lon="6.46764">
        <ele>1544.6887207031</ele>
        <time>2020-06-16T15:19:16.548Z</time>
      </trkpt>
      <trkpt lat="45.92091" lon="6.46568">
        <ele>1570.6450195312</ele>
        <time>2020-06-16T15:19:21.900Z</time>
      </trkpt>
      <trkpt lat="45.92077" lon="6.46528">
        <ele>1571.8139648438</ele>
        <time>2020-06-16T15:19:27.263Z</time>
      </trkpt>
      <trkpt lat="45.92098" lon="6.46443">
        <ele>1581.9144287109</ele>
        <time>2020-06-16T15:19:32.647Z</time>
      </trkpt>
      <trkpt lat="45.92099" lon="6.46437">
        <ele>1582.4289550781</ele>
        <time>2020-06-16T15:19:38.032Z</time>
      </trkpt>
      <trkpt lat="45.92099" lon="6.46437">
        <ele>1582.43359375</ele>
        <time>2020-06-16T15:19:43.417Z</time>
      </trkpt>
      <trkpt lat="45.92106" lon="6.46363">
        <ele>1587.2412109375</ele>
        <time>2020-06-16T15:19:48.820Z</time>
      </trkpt>
      <trkpt lat="45.92107" lon="6.46271">
        <ele>1588.5684814453</ele>
        <time>2020-06-16T15:19:54.244Z</time>
      </trkpt>
      <trkpt lat="45.92074" lon="6.46075">
        <ele>1587.3923339844</ele>
        <time>2020-06-16T15:19:59.715Z</time>
      </trkpt>
      <trkpt lat="45.92079" lon="6.46022">
        <ele>1589.1202392578</ele>
        <time>2020-06-16T15:20:05.198Z</time>
      </trkpt>
      <trkpt lat="45.92023" lon="6.45868">
        <ele>1585.9262695312</ele>
        <time>2020-06-16T15:20:10.722Z</time>
      </trkpt>
      <trkpt lat="45.92018" lon="6.45801">
        <ele>1580.6853027344</ele>
        <time>2020-06-16T15:20:16.262Z</time>
      </trkpt>
      <trkpt lat="45.92021" lon="6.45772">
        <ele>1579.0633544922</ele>
        <time>2020-06-16T15:20:21.808Z</time>
      </trkpt>
      <trkpt lat="45.92034" lon="6.45731">
        <ele>1577.1370849609</ele>
        <time>2020-06-16T15:20:27.365Z</time>
      </trkpt>
      <trkpt lat="45.92037" lon="6.4572">
        <ele>1576.9952392578</ele>
        <time>2020-06-16T15:20:32.924Z</time>
      </trkpt>
      <trkpt lat="45.92039" lon="6.45631">
        <ele>1574.8533935547</ele>
        <time>2020-06-16T15:20:38.504Z</time>
      </trkpt>
      <trkpt lat="45.92031" lon="6.45557">
        <ele>1577.7712402344</ele>
        <time>2020-06-16T15:20:44.102Z</time>
      </trkpt>
      <trkpt lat="45.92033" lon="6.45508">
        <ele>1581.7860107422</ele>
        <time>2020-06-16T15:20:49.711Z</time>
      </trkpt>
      <trkpt lat="45.92047" lon="6.45442">
        <ele>1589.6654052734</ele>
        <time>2020-06-16T15:20:55.336Z</time>
      </trkpt>
      <trkpt lat="45.92033" lon="6.45415">
        <ele>1596.0244140625</ele>
        <time>2020-06-16T15:21:00.969Z</time>
      </trkpt>
      <trkpt lat="45.92077" lon="6.45261">
        <ele>1620.5202636719</ele>
        <time>2020-06-16T15:21:06.641Z</time>
      </trkpt>
      <trkpt lat="45.92135" lon="6.45182">
        <ele>1628.8004150391</ele>
        <time>2020-06-16T15:21:12.339Z</time>
      </trkpt>
      <trkpt lat="45.92162" lon="6.45056">
        <ele>1657.7022705078</ele>
        <time>2020-06-16T15:21:18.068Z</time>
      </trkpt>
      <trkpt lat="45.92176" lon="6.44936">
        <ele>1686.7133789062</ele>
        <time>2020-06-16T15:21:23.825Z</time>
      </trkpt>
      <trkpt lat="45.92175" lon="6.44791">
        <ele>1700.0678710938</ele>
        <time>2020-06-16T15:21:29.616Z</time>
      </trkpt>
      <trkpt lat="45.92183" lon="6.44792">
        <ele>1698.7548828125</ele>
        <time>2020-06-16T15:21:35.410Z</time>
      </trkpt>
      <trkpt lat="45.92186" lon="6.44779">
        <ele>1697.9438476562</ele>
        <time>2020-06-16T15:21:41.207Z</time>
      </trkpt>
      <trkpt lat="45.92181" lon="6.44747">
        <ele>1693.345703125</ele>
        <time>2020-06-16T15:21:47.012Z</time>
      </trkpt>
      <trkpt lat="45.92181" lon="6.44747">
        <ele>1693.3428955078</ele>
        <time>2020-06-16T15:21:52.817Z</time>
      </trkpt>
      <trkpt lat="45.92182" lon="6.44724">
        <ele>1688.8060302734</ele>
        <time>2020-06-16T15:21:58.627Z</time>
      </trkpt>
      <trkpt lat="45.92161" lon="6.44698">
        <ele>1692.6163330078</ele>
        <time>2020-06-16T15:22:04.447Z</time>
      </trkpt>
      <trkpt lat="45.92175" lon="6.446">
        <ele>1673.4016113281</ele>
        <time>2020-06-16T15:22:10.290Z</time>
      </trkpt>
      <trkpt lat="45.92165" lon="6.44537">
        <ele>1664.8090820312</ele>
        <time>2020-06-16T15:22:16.148Z</time>
      </trkpt>
      <trkpt lat="45.92142" lon="6.44493">
        <ele>1664.5129394531</ele>
        <time>2020-06-16T15:22:22.019Z</time>
      </trkpt>
      <trkpt lat="45.92146" lon="6.44441">
        <ele>1651.2087402344</ele>
        <time>2020-06-16T15:22:27.902Z</time>
      </trkpt>
      <trkpt lat="45.92169" lon="6.44361">
        <ele>1624.4912109375</ele>
        <time>2020-06-16T15:22:33.805Z</time>
      </trkpt>
      <trkpt lat="45.9218" lon="6.44355">
        <ele>1619.1506347656</ele>
        <time>2020-06-16T15:22:39.712Z</time>
      </trkpt>
      <trkpt lat="45.92238" lon="6.44406">
        <ele>1609.9392089844</ele>
        <time>2020-06-16T15:22:45.642Z</time>
      </trkpt>
      <trkpt lat="45.92252" lon="6.44409">
        <ele>1607.3905029297</ele>
        <time>2020-06-16T15:22:51.576Z</time>
      </trkpt>
      <trkpt lat="45.92266" lon="6.44441">
        <ele>1609.0411376953</ele>
        <time>2020-06-16T15:22:57.519Z</time>
      </trkpt>
      <trkpt lat="45.92279" lon="6.44447">
        <ele>1607.0042724609</ele>
        <time>2020-06-16T15:23:03.467Z</time>
      </trkpt>
      <trkpt lat="45.92276" lon="6.44395">
        <ele>1599.8815917969</ele>
        <time>2020-06-16T15:23:09.427Z</time>
      </trkpt>
      <trkpt lat="45.92258" lon="6.44304">
        <ele>1584.2094726562</ele>
        <time>2020-06-16T15:23:15.409Z</time>
      </trkpt>
      <trkpt lat="45.92258" lon="6.44304">
        <ele>1584.2084960938</ele>
        <time>2020-06-16T15:23:21.391Z</time>
      </trkpt>
      <trkpt lat="45.92253" lon="6.44246">
        <ele>1572.3848876953</ele>
        <time>2020-06-16T15:23:27.386Z</time>
      </trkpt>
      <trkpt lat="45.92245" lon="6.44228">
        <ele>1569.8547363281</ele>
        <time>2020-06-16T15:23:33.386Z</time>
      </trkpt>
      <trkpt lat="45.9225" lon="6.44218">
        <ele>1568.2713623047</ele>
        <time>2020-06-16T15:23:39.389Z</time>
      </trkpt>
      <trkpt lat="45.92224" lon="6.44173">
        <ele>1564.1773681641</ele>
        <time>2020-06-16T15:23:45.405Z</time>
      </trkpt>
      <trkpt lat="45.92216" lon="6.44143">
        <ele>1561.3779296875</ele>
        <time>2020-06-16T15:23:51.429Z</time>
      </trkpt>
      <trkpt lat="45.92223" lon="6.44144">
        <ele>1560.3394775391</ele>
        <time>2020-06-16T15:23:57.455Z</time>
      </trkpt>
      <trkpt lat="45.9223" lon="6.44111">
        <ele>1553.8929443359</ele>
        <time>2020-06-16T15:24:03.489Z</time>
      </trkpt>
      <trkpt lat="45.92232" lon="6.44018">
        <ele>1535.4984130859</ele>
        <time>2020-06-16T15:24:09.545Z</time>
      </trkpt>
      <trkpt lat="45.92241" lon="6.43949">
        <ele>1519.9682617188</ele>
        <time>2020-06-16T15:24:15.617Z</time>
      </trkpt>
      <trkpt lat="45.92235" lon="6.43909">
        <ele>1511.6884765625</ele>
        <time>2020-06-16T15:24:21.699Z</time>
      </trkpt>
      <trkpt lat="45.92237" lon="6.43894">
        <ele>1507.7047119141</ele>
        <time>2020-06-16T15:24:27.784Z</time>
      </trkpt>
      <trkpt lat="45.92269" lon="6.4388">
        <ele>1501.3714599609</ele>
        <time>2020-06-16T15:24:33.880Z</time>
      </trkpt>
      <trkpt lat="45.92268" lon="6.4387">
        <ele>1498.3592529297</ele>
        <time>2020-06-16T15:24:39.979Z</time>
      </trkpt>
      <trkpt lat="45.92249" lon="6.43863">
        <ele>1497.8958740234</ele>
        <time>2020-06-16T15:24:46.084Z</time>
      </trkpt>
      <trkpt lat="45.92236" lon="6.43848">
        <ele>1494.4975585938</ele>
        <time>2020-06-16T15:24:52.195Z</time>
      </trkpt>
      <trkpt lat="45.92137" lon="6.43817">
        <ele>1482.8178710938</ele>
        <time>2020-06-16T15:24:58.340Z</time>
      </trkpt>
      <trkpt lat="45.92137" lon="6.43816">
        <ele>1482.3544921875</ele>
        <time>2020-06-16T15:25:04.485Z</time>
      </trkpt>
      <trkpt lat="45.92088" lon="6.43833">
        <ele>1477.9263916016</ele>
        <time>2020-06-16T15:25:10.647Z</time>
      </trkpt>
      <trkpt lat="45.9206" lon="6.43869">
        <ele>1485.9239501953</ele>
        <time>2020-06-16T15:25:16.821Z</time>
      </trkpt>
      <trkpt lat="45.9206" lon="6.43869">
        <ele>1485.9261474609</ele>
        <time>2020-06-16T15:25:22.995Z</time>
      </trkpt>
      <trkpt lat="45.92038" lon="6.43895">
        <ele>1487.9545898438</ele>
        <time>2020-06-16T15:25:29.179Z</time>
      </trkpt>
      <trkpt lat="45.91992" lon="6.43919">
        <ele>1471.2156982422</ele>
        <time>2020-06-16T15:25:35.379Z</time>
      </trkpt>
      <trkpt lat="45.91918" lon="6.43977">
        <ele>1455.2028808594</ele>
        <time>2020-06-16T15:25:41.607Z</time>
      </trkpt>
      <trkpt lat="45.91869" lon="6.44033">
        <ele>1453.1004638672</ele>
        <time>2020-06-16T15:25:47.856Z</time>
      </trkpt>
      <trkpt lat="45.91847" lon="6.44069">
        <ele>1454.32421875</ele>
        <time>2020-06-16T15:25:54.116Z</time>
      </trkpt>
      <trkpt lat="45.91831" lon="6.44125">
        <ele>1459.8879394531</ele>
        <time>2020-06-16T15:26:00.390Z</time>
      </trkpt>
      <trkpt lat="45.91807" lon="6.44125">
        <ele>1448.9592285156</ele>
        <time>2020-06-16T15:26:06.673Z</time>
      </trkpt>
      <trkpt lat="45.91754" lon="6.44157">
        <ele>1435.4835205078</ele>
        <time>2020-06-16T15:26:12.975Z</time>
      </trkpt>
      <trkpt lat="45.91752" lon="6.44171">
        <ele>1436.6934814453</ele>
        <time>2020-06-16T15:26:19.280Z</time>
      </trkpt>
      <trkpt lat="45.91683" lon="6.44173">
        <ele>1420.4764404297</ele>
        <time>2020-06-16T15:26:25.608Z</time>
      </trkpt>
      <trkpt lat="45.91635" lon="6.44153">
        <ele>1406.7496337891</ele>
        <time>2020-06-16T15:26:31.953Z</time>
      </trkpt>
      <trkpt lat="45.91614" lon="6.44127">
        <ele>1400.3978271484</ele>
        <time>2020-06-16T15:26:38.307Z</time>
      </trkpt>
      <trkpt lat="45.91537" lon="6.44143">
        <ele>1390.6435546875</ele>
        <time>2020-06-16T15:26:44.687Z</time>
      </trkpt>
      <trkpt lat="45.91537" lon="6.44143">
        <ele>1390.6427001953</ele>
        <time>2020-06-16T15:26:51.067Z</time>
      </trkpt>
      <trkpt lat="45.91496" lon="6.44152">
        <ele>1387.3002929688</ele>
        <time>2020-06-16T15:26:57.461Z</time>
      </trkpt>
      <trkpt lat="45.91463" lon="6.44143">
        <ele>1382.3208007812</ele>
        <time>2020-06-16T15:27:03.866Z</time>
      </trkpt>
      <trkpt lat="45.91444" lon="6.44112">
        <ele>1376.3028564453</ele>
        <time>2020-06-16T15:27:10.280Z</time>
      </trkpt>
      <trkpt lat="45.91455" lon="6.44098">
        <ele>1377.4871826172</ele>
        <time>2020-06-16T15:27:16.699Z</time>
      </trkpt>
      <trkpt lat="45.9154" lon="6.44063">
        <ele>1383.0725097656</ele>
        <time>2020-06-16T15:27:23.148Z</time>
      </trkpt>
      <trkpt lat="45.91574" lon="6.43978">
        <ele>1371.1813964844</ele>
        <time>2020-06-16T15:27:29.620Z</time>
      </trkpt>
      <trkpt lat="45.91572" lon="6.43936">
        <ele>1372.4289550781</ele>
        <time>2020-06-16T15:27:36.101Z</time>
      </trkpt>
      <trkpt lat="45.91572" lon="6.43936">
        <ele>1372.4300537109</ele>
        <time>2020-06-16T15:27:42.582Z</time>
      </trkpt>
      <trkpt lat="45.91565" lon="6.4379">
        <ele>1376.9079589844</ele>
        <time>2020-06-16T15:27:49.097Z</time>
      </trkpt>
      <trkpt lat="45.91453" lon="6.43677">
        <ele>1368.9719238281</ele>
        <time>2020-06-16T15:27:55.658Z</time>
      </trkpt>
      <trkpt lat="45.91387" lon="6.4352">
        <ele>1363.658203125</ele>
        <time>2020-06-16T15:28:02.262Z</time>
      </trkpt>
      <trkpt lat="45.91409" lon="6.4339">
        <ele>1371.3002929688</ele>
        <time>2020-06-16T15:28:08.897Z</time>
      </trkpt>
      <trkpt lat="45.91394" lon="6.43371">
        <ele>1368.5985107422</ele>
        <time>2020-06-16T15:28:15.539Z</time>
      </trkpt>
      <trkpt lat="45.91388" lon="6.43318">
        <ele>1367.828125</ele>
        <time>2020-06-16T15:28:22.193Z</time>
      </trkpt>
      <trkpt lat="45.91328" lon="6.43229">
        <ele>1376.1915283203</ele>
        <time>2020-06-16T15:28:28.876Z</time>
      </trkpt>
      <trkpt lat="45.91343" lon="6.43116">
        <ele>1389.0743408203</ele>
        <time>2020-06-16T15:28:35.585Z</time>
      </trkpt>
      <trkpt lat="45.91316" lon="6.42995">
        <ele>1394.6867675781</ele>
        <time>2020-06-16T15:28:42.324Z</time>
      </trkpt>
      <trkpt lat="45.91209" lon="6.42828">
        <ele>1380.8950195312</ele>
        <time>2020-06-16T15:28:49.116Z</time>
      </trkpt>
      <trkpt lat="45.91161" lon="6.42792">
        <ele>1369.1761474609</ele>
        <time>2020-06-16T15:28:55.926Z</time>
      </trkpt>
      <trkpt lat="45.91086" lon="6.42597">
        <ele>1337.3642578125</ele>
        <time>2020-06-16T15:29:02.788Z</time>
      </trkpt>
      <trkpt lat="45.91079" lon="6.42555">
        <ele>1324.2862548828</ele>
        <time>2020-06-16T15:29:09.660Z</time>
      </trkpt>
      <trkpt lat="45.91094" lon="6.42509">
        <ele>1309.41796875</ele>
        <time>2020-06-16T15:29:16.544Z</time>
      </trkpt>
      <trkpt lat="45.91086" lon="6.42506">
        <ele>1309.8813476562</ele>
        <time>2020-06-16T15:29:23.431Z</time>
      </trkpt>
      <trkpt lat="45.91087" lon="6.42491">
        <ele>1298.7209472656</ele>
        <time>2020-06-16T15:29:30.321Z</time>
      </trkpt>
      <trkpt lat="45.9107" lon="6.42475">
        <ele>1294.9459228516</ele>
        <time>2020-06-16T15:29:37.218Z</time>
      </trkpt>
      <trkpt lat="45.91048" lon="6.42423">
        <ele>1278.5764160156</ele>
        <time>2020-06-16T15:29:44.129Z</time>
      </trkpt>
      <trkpt lat="45.91037" lon="6.42413">
        <ele>1274.8433837891</ele>
        <time>2020-06-16T15:29:51.044Z</time>
      </trkpt>
      <trkpt lat="45.91033" lon="6.42422">
        <ele>1279.0397949219</ele>
        <time>2020-06-16T15:29:57.962Z</time>
      </trkpt>
      <trkpt lat="45.91023" lon="6.42418">
        <ele>1277.8684082031</ele>
        <time>2020-06-16T15:30:04.883Z</time>
      </trkpt>
      <trkpt lat="45.91015" lon="6.42441">
        <ele>1287.3330078125</ele>
        <time>2020-06-16T15:30:11.810Z</time>
      </trkpt>
      <trkpt lat="45.91" lon="6.42413">
        <ele>1277.0960693359</ele>
        <time>2020-06-16T15:30:18.746Z</time>
      </trkpt>
      <trkpt lat="45.90994" lon="6.42443">
        <ele>1278.0777587891</ele>
        <time>2020-06-16T15:30:25.689Z</time>
      </trkpt>
      <trkpt lat="45.90987" lon="6.42437">
        <ele>1275.2586669922</ele>
        <time>2020-06-16T15:30:32.635Z</time>
      </trkpt>
      <trkpt lat="45.90983" lon="6.42443">
        <ele>1272.8386230469</ele>
        <time>2020-06-16T15:30:39.582Z</time>
      </trkpt>
      <trkpt lat="45.90958" lon="6.42393">
        <ele>1264.5867919922</ele>
        <time>2020-06-16T15:30:46.544Z</time>
      </trkpt>
      <trkpt lat="45.90926" lon="6.4235">
        <ele>1252.3582763672</ele>
        <time>2020-06-16T15:30:53.520Z</time>
      </trkpt>
      <trkpt lat="45.90912" lon="6.4231">
        <ele>1245.5288085938</ele>
        <time>2020-06-16T15:31:00.507Z</time>
      </trkpt>
      <trkpt lat="45.90909" lon="6.42325">
        <ele>1244.5318603516</ele>
        <time>2020-06-16T15:31:07.497Z</time>
      </trkpt>
      <trkpt lat="45.90897" lon="6.42299">
        <ele>1240.1481933594</ele>
        <time>2020-06-16T15:31:14.495Z</time>
      </trkpt>
      <trkpt lat="45.90896" lon="6.42338">
        <ele>1236.6278076172</ele>
        <time>2020-06-16T15:31:21.502Z</time>
      </trkpt>
      <trkpt lat="45.90888" lon="6.42323">
        <ele>1234.6453857422</ele>
        <time>2020-06-16T15:31:28.513Z</time>
      </trkpt>
      <trkpt lat="45.90886" lon="6.42338">
        <ele>1230.8352050781</ele>
        <time>2020-06-16T15:31:35.528Z</time>
      </trkpt>
      <trkpt lat="45.90871" lon="6.4231">
        <ele>1225.7524414062</ele>
        <time>2020-06-16T15:31:42.551Z</time>
      </trkpt>
      <trkpt lat="45.9086" lon="6.42303">
        <ele>1219.5479736328</ele>
        <time>2020-06-16T15:31:49.578Z</time>
      </trkpt>
      <trkpt lat="45.90859" lon="6.42319">
        <ele>1217.8082275391</ele>
        <time>2020-06-16T15:31:56.608Z</time>
      </trkpt>
      <trkpt lat="45.90841" lon="6.423">
        <ele>1208.0786132812</ele>
        <time>2020-06-16T15:32:03.646Z</time>
      </trkpt>
      <trkpt lat="45.90845" lon="6.4229">
        <ele>1211.0006103516</ele>
        <time>2020-06-16T15:32:10.687Z</time>
      </trkpt>
      <trkpt lat="45.90811" lon="6.42222">
        <ele>1191.7564697266</ele>
        <time>2020-06-16T15:32:17.747Z</time>
      </trkpt>
      <trkpt lat="45.90798" lon="6.42214">
        <ele>1183.9100341797</ele>
        <time>2020-06-16T15:32:24.812Z</time>
      </trkpt>
      <trkpt lat="45.90809" lon="6.42255">
        <ele>1190.3918457031</ele>
        <time>2020-06-16T15:32:31.887Z</time>
      </trkpt>
      <trkpt lat="45.90811" lon="6.42345">
        <ele>1185.1318359375</ele>
        <time>2020-06-16T15:32:38.983Z</time>
      </trkpt>
      <trkpt lat="45.90816" lon="6.42335">
        <ele>1189.6114501953</ele>
        <time>2020-06-16T15:32:46.082Z</time>
      </trkpt>
      <trkpt lat="45.90812" lon="6.42358">
        <ele>1183.9008789062</ele>
        <time>2020-06-16T15:32:53.186Z</time>
      </trkpt>
      <trkpt lat="45.90812" lon="6.42358">
        <ele>1183.8959960938</ele>
        <time>2020-06-16T15:33:00.290Z</time>
      </trkpt>
      <trkpt lat="45.90823" lon="6.42481">
        <ele>1175.8903808594</ele>
        <time>2020-06-16T15:33:07.423Z</time>
      </trkpt>
      <trkpt lat="45.9082" lon="6.42527">
        <ele>1164.3114013672</ele>
        <time>2020-06-16T15:33:14.567Z</time>
      </trkpt>
      <trkpt lat="45.90837" lon="6.42609">
        <ele>1164.9047851562</ele>
        <time>2020-06-16T15:33:21.731Z</time>
      </trkpt>
      <trkpt lat="45.90804" lon="6.42576">
        <ele>1146.0352783203</ele>
        <time>2020-06-16T15:33:28.908Z</time>
      </trkpt>
      <trkpt lat="45.90804" lon="6.42576">
        <ele>1146.0308837891</ele>
        <time>2020-06-16T15:33:36.085Z</time>
      </trkpt>
      <trkpt lat="45.9079" lon="6.42549">
        <ele>1141.0653076172</ele>
        <time>2020-06-16T15:33:43.270Z</time>
      </trkpt>
      <trkpt lat="45.90785" lon="6.42584">
        <ele>1136.4195556641</ele>
        <time>2020-06-16T15:33:50.464Z</time>
      </trkpt>
      <trkpt lat="45.90785" lon="6.42584">
        <ele>1136.4151611328</ele>
        <time>2020-06-16T15:33:57.658Z</time>
      </trkpt>
      <trkpt lat="45.90785" lon="6.42669">
        <ele>1134.6247558594</ele>
        <time>2020-06-16T15:34:04.871Z</time>
      </trkpt>
      <trkpt lat="45.9078" lon="6.42681">
        <ele>1131.7199707031</ele>
        <time>2020-06-16T15:34:12.088Z</time>
      </trkpt>
      <trkpt lat="45.9072" lon="6.42668">
        <ele>1100.6225585938</ele>
        <time>2020-06-16T15:34:19.325Z</time>
      </trkpt>
      <trkpt lat="45.90681" lon="6.42676">
        <ele>1084.9697265625</ele>
        <time>2020-06-16T15:34:26.575Z</time>
      </trkpt>
      <trkpt lat="45.90681" lon="6.4274">
        <ele>1083.1743164062</ele>
        <time>2020-06-16T15:34:33.840Z</time>
      </trkpt>
      <trkpt lat="45.90673" lon="6.42765">
        <ele>1079.7825927734</ele>
        <time>2020-06-16T15:34:41.111Z</time>
      </trkpt>
      <trkpt lat="45.90673" lon="6.42765">
        <ele>1079.7823486328</ele>
        <time>2020-06-16T15:34:48.382Z</time>
      </trkpt>
      <trkpt lat="45.90668" lon="6.42779">
        <ele>1078.1436767578</ele>
        <time>2020-06-16T15:34:55.657Z</time>
      </trkpt>
      <trkpt lat="45.90668" lon="6.42779">
        <ele>1078.140625</ele>
        <time>2020-06-16T15:35:02.932Z</time>
      </trkpt>
      <trkpt lat="45.9064" lon="6.42721">
        <ele>1068.3809814453</ele>
        <time>2020-06-16T15:35:10.223Z</time>
      </trkpt>
      <trkpt lat="45.90628" lon="6.42708">
        <ele>1066.0170898438</ele>
        <time>2020-06-16T15:35:17.519Z</time>
      </trkpt>
      <trkpt lat="45.90618" lon="6.42709">
        <ele>1064.0219726562</ele>
        <time>2020-06-16T15:35:24.819Z</time>
      </trkpt>
      <trkpt lat="45.90617" lon="6.42707">
        <ele>1063.8563232422</ele>
        <time>2020-06-16T15:35:32.119Z</time>
      </trkpt>
      <trkpt lat="45.90615" lon="6.42703">
        <ele>1063.4958496094</ele>
        <time>2020-06-16T15:35:39.420Z</time>
      </trkpt>
      <trkpt lat="45.90604" lon="6.42702">
        <ele>1061.9466552734</ele>
        <time>2020-06-16T15:35:46.725Z</time>
      </trkpt>
      <trkpt lat="45.90599" lon="6.42709">
        <ele>1061.8299560547</ele>
        <time>2020-06-16T15:35:54.032Z</time>
      </trkpt>
      <trkpt lat="45.90585" lon="6.42688">
        <ele>1058.8572998047</ele>
        <time>2020-06-16T15:36:01.346Z</time>
      </trkpt>
      <trkpt lat="45.90557" lon="6.42638">
        <ele>1052.4803466797</ele>
        <time>2020-06-16T15:36:08.675Z</time>
      </trkpt>
      <trkpt lat="45.90541" lon="6.42592">
        <ele>1050.2663574219</ele>
        <time>2020-06-16T15:36:16.016Z</time>
      </trkpt>
      <trkpt lat="45.90528" lon="6.42549">
        <ele>1047.4134521484</ele>
        <time>2020-06-16T15:36:23.368Z</time>
      </trkpt>
      <trkpt lat="45.90518" lon="6.42546">
        <ele>1047.1046142578</ele>
        <time>2020-06-16T15:36:30.723Z</time>
      </trkpt>
      <trkpt lat="45.90499" lon="6.4255">
        <ele>1047.5164794922</ele>
        <time>2020-06-16T15:36:38.085Z</time>
      </trkpt>
      <trkpt lat="45.90499" lon="6.4255">
        <ele>1047.5164794922</ele>
        <time>2020-06-16T15:36:45.447Z</time>
      </trkpt>
      <trkpt lat="45.90483" lon="6.42547">
        <ele>1047.2075195312</ele>
        <time>2020-06-16T15:36:52.814Z</time>
      </trkpt>
      <trkpt lat="45.90478" lon="6.42546">
        <ele>1047.1046142578</ele>
        <time>2020-06-16T15:37:00.182Z</time>
      </trkpt>
      <trkpt lat="45.90441" lon="6.42527">
        <ele>1047.3081054688</ele>
        <time>2020-06-16T15:37:07.564Z</time>
      </trkpt>
      <trkpt lat="45.90441" lon="6.42527">
        <ele>1047.30859375</ele>
        <time>2020-06-16T15:37:14.946Z</time>
      </trkpt>
      <trkpt lat="45.90371" lon="6.42479">
        <ele>1049.3255615234</ele>
        <time>2020-06-16T15:37:22.353Z</time>
      </trkpt>
      <trkpt lat="45.90371" lon="6.42479">
        <ele>1049.3271484375</ele>
        <time>2020-06-16T15:37:29.760Z</time>
      </trkpt>
      <trkpt lat="45.90342" lon="6.42453">
        <ele>1052.1076660156</ele>
        <time>2020-06-16T15:37:37.179Z</time>
      </trkpt>
      <trkpt lat="45.90314" lon="6.42386">
        <ele>1050.8088378906</ele>
        <time>2020-06-16T15:37:44.616Z</time>
      </trkpt>
      <trkpt lat="45.90316" lon="6.42466">
        <ele>1058.4409179688</ele>
        <time>2020-06-16T15:37:52.072Z</time>
      </trkpt>
      <trkpt lat="45.90308" lon="6.42481">
        <ele>1061.7088623047</ele>
        <time>2020-06-16T15:37:59.532Z</time>
      </trkpt>
      <trkpt lat="45.90285" lon="6.42444">
        <ele>1063.2680664062</ele>
        <time>2020-06-16T15:38:07.004Z</time>
      </trkpt>
      <trkpt lat="45.90276" lon="6.42438">
        <ele>1065.1217041016</ele>
        <time>2020-06-16T15:38:14.479Z</time>
      </trkpt>
      <trkpt lat="45.90268" lon="6.42451">
        <ele>1069.1536865234</ele>
        <time>2020-06-16T15:38:21.958Z</time>
      </trkpt>
      <trkpt lat="45.90271" lon="6.42492">
        <ele>1076.7077636719</ele>
        <time>2020-06-16T15:38:29.447Z</time>
      </trkpt>
      <trkpt lat="45.90271" lon="6.42492">
        <ele>1076.7048339844</ele>
        <time>2020-06-16T15:38:36.936Z</time>
      </trkpt>
      <trkpt lat="45.90269" lon="6.42509">
        <ele>1081.5736083984</ele>
        <time>2020-06-16T15:38:44.429Z</time>
      </trkpt>
      <trkpt lat="45.90274" lon="6.42528">
        <ele>1084.4591064453</ele>
        <time>2020-06-16T15:38:51.927Z</time>
      </trkpt>
      <trkpt lat="45.90274" lon="6.42528">
        <ele>1084.4631347656</ele>
        <time>2020-06-16T15:38:59.425Z</time>
      </trkpt>
      <trkpt lat="45.90282" lon="6.4256">
        <ele>1086.9293212891</ele>
        <time>2020-06-16T15:39:06.930Z</time>
      </trkpt>
      <trkpt lat="45.90285" lon="6.42564">
        <ele>1086.8377685547</ele>
        <time>2020-06-16T15:39:14.437Z</time>
      </trkpt>
    </trkseg>
  </trk>
</gpx>